Time;durP1;ratioP1;P1;durP2;ratioP2;P2;SDS_P1;SDS_P2;PMS_P1;PMS_P2;Temp;Humidity;BMP_temperature;BMP_pressure;BME280_temperature;BME280_humidity;BME280_pressure;Samples;Min_cycle;Max_cycle;Signal;HPM_P1;HPM_P2
2023/03/25 00:02:39;;;;;;;0.70;0.70;;;;;;;24.69;36.72;99282.92;1861335;75;28110;-54
2023/03/25 00:05:28;;;;;;;0.50;0.50;;;;;;;24.68;36.74;99286.77;1866961;76;28099;-56
2023/03/25 00:08:16;;;;;;;0.78;0.78;;;;;;;24.68;36.71;99281.81;1866735;76;28052;-48
2023/03/25 00:11:07;;;;;;;1.07;0.70;;;;;;;24.68;36.71;99283.19;1860582;76;28043;-47
2023/03/25 00:13:55;;;;;;;0.70;0.70;;;;;;;24.68;36.68;99284.03;1837255;76;28260;-49
2023/03/25 00:16:47;;;;;;;0.75;0.75;;;;;;;24.68;36.70;99288.14;1865451;75;28080;-48
2023/03/25 00:19:36;;;;;;;1.25;0.70;;;;;;;24.67;36.77;99295.25;1810214;78;28202;-47
2023/03/25 00:22:24;;;;;;;0.70;0.70;;;;;;;24.67;36.75;99298.83;1826734;77;28189;-47
2023/03/25 00:25:20;;;;;;;0.60;0.60;;;;;;;24.64;36.80;99295.77;1824480;78;28367;-46
2023/03/25 00:28:05;;;;;;;0.70;0.70;;;;;;;24.63;36.80;99305.92;1824476;78;28759;-47
2023/03/25 00:30:53;;;;;;;0.80;0.80;;;;;;;24.56;36.83;99292.91;1824511;78;28247;-49
2023/03/25 00:33:42;;;;;;;0.53;0.53;;;;;;;24.62;36.90;99302.88;1824459;78;28314;-46
2023/03/25 00:36:31;;;;;;;1.00;0.90;;;;;;;24.65;36.87;99305.13;1819174;78;28404;-47
2023/03/25 00:39:19;;;;;;;0.60;0.60;;;;;;;24.65;36.78;99305.66;1810828;78;28268;-48
2023/03/25 00:42:10;;;;;;;0.80;0.80;;;;;;;24.63;36.86;99305.92;1829589;78;28219;-50
2023/03/25 00:44:58;;;;;;;0.57;0.57;;;;;;;24.63;36.89;99308.67;1827114;78;28258;-48
2023/03/25 00:47:46;;;;;;;0.78;0.70;;;;;;;24.61;36.89;99307.25;1830973;78;28266;-49
2023/03/25 00:50:34;;;;;;;0.70;0.70;;;;;;;24.60;36.90;99311.91;1824127;78;28305;-47
2023/03/25 00:53:23;;;;;;;0.70;0.70;;;;;;;24.62;36.89;99310.31;1831207;78;28231;-46
2023/03/25 00:56:12;;;;;;;0.80;0.80;;;;;;;24.60;36.89;99307.80;1830726;78;28264;-46
2023/03/25 00:59:00;;;;;;;1.10;0.80;;;;;;;24.62;36.82;99304.24;1808673;78;28305;-47
2023/03/25 01:01:51;;;;;;;0.70;0.70;;;;;;;24.57;36.92;99305.57;1884171;75;28072;-47
2023/03/25 01:04:39;;;;;;;0.90;0.90;;;;;;;24.59;36.93;99305.31;1829868;76;28278;-49
2023/03/25 01:07:31;;;;;;;0.70;0.70;;;;;;;24.59;36.88;99306.68;1841695;77;28115;-48
2023/03/25 01:10:20;;;;;;;0.60;0.60;;;;;;;24.59;36.91;99308.89;1806132;78;28382;-47
2023/03/25 01:13:10;;;;;;;0.57;0.57;;;;;;;24.62;36.88;99315.23;1822274;78;38609;-47
2023/03/25 01:15:58;;;;;;;0.62;0.62;;;;;;;24.61;36.85;99316.87;1827532;78;28203;-47
2023/03/25 01:18:46;;;;;;;1.75;0.80;;;;;;;24.60;36.90;99317.41;1877775;75;28063;-51
2023/03/25 01:21:35;;;;;;;0.60;0.60;;;;;;;24.60;36.83;99316.56;1806170;79;28316;-47
2023/03/25 01:24:25;;;;;;;0.80;0.80;;;;;;;24.61;36.83;99320.45;1785582;79;28297;-49
2023/03/25 01:27:13;;;;;;;0.70;0.70;;;;;;;24.62;36.83;99316.61;1809564;79;28235;-46
2023/03/25 01:30:01;;;;;;;0.70;0.70;;;;;;;24.60;36.85;99317.94;1803300;79;28308;-47
2023/03/25 01:32:50;;;;;;;0.70;0.70;;;;;;;24.60;36.84;99318.78;1806133;79;28256;-53
2023/03/25 01:35:39;;;;;;;0.68;0.68;;;;;;;24.59;36.83;99319.88;1806158;79;28227;-46
2023/03/25 01:38:29;;;;;;;0.72;0.72;;;;;;;24.59;36.88;99319.88;1806366;79;28688;-49
2023/03/25 01:41:18;;;;;;;1.30;0.60;;;;;;;24.57;36.81;99324.80;1839751;77;31003;-48
2023/03/25 01:44:15;;;;;;;0.55;0.55;;;;;;;24.60;36.86;99327.02;1856698;77;28122;-47
2023/03/25 01:47:05;;;;;;;0.70;0.70;;;;;;;24.60;36.81;99319.31;1846811;76;28205;-48
2023/03/25 01:49:54;;;;;;;0.65;0.65;;;;;;;24.61;36.84;99320.98;1847531;76;28212;-50
2023/03/25 01:52:45;;;;;;;1.32;0.80;;;;;;;24.61;36.83;99334.19;1840392;77;28255;-45
2023/03/25 01:55:36;;;;;;;0.70;0.70;;;;;;;24.61;36.88;99330.60;1857142;77;28060;-47
2023/03/25 01:58:26;;;;;;;0.57;0.57;;;;;;;24.65;36.79;99327.63;1852404;77;28154;-47
2023/03/25 02:01:20;;;;;;;0.70;0.70;;;;;;;24.63;36.84;99317.44;1857001;76;28095;-51
2023/03/25 02:04:11;;;;;;;0.60;0.60;;;;;;;24.63;36.83;99319.66;1852980;76;28111;-47
2023/03/25 02:07:00;;;;;;;1.10;0.70;;;;;;;24.62;36.81;99327.59;1848284;76;28142;-46
2023/03/25 02:09:49;;;;;;;0.80;0.70;;;;;;;24.63;36.84;99333.92;1846438;76;28173;-49
2023/03/25 02:12:39;;;;;;;0.75;0.75;;;;;;;24.60;36.90;99338.00;1847076;76;28180;-46
2023/03/25 02:15:30;;;;;;;0.67;0.67;;;;;;;24.60;36.86;99339.91;1854286;76;28141;-45
2023/03/25 02:18:25;;;;;;;0.57;0.57;;;;;;;24.62;36.88;99340.52;1837463;76;28111;-51
2023/03/25 02:21:23;;;;;;;0.80;0.80;;;;;;;24.63;36.86;99333.92;1846716;76;28059;-46
2023/03/25 02:24:28;;;;;;;0.70;0.70;;;;;;;24.63;36.80;99330.64;1856923;77;28305;-47
2023/03/25 02:27:52;;;;;;;0.70;0.70;;;;;;;24.59;36.89;99341.02;1868568;76;28175;-47
2023/03/25 02:30:59;;;;;;;0.72;0.72;;;;;;;24.58;36.87;99339.34;1868831;76;28138;-48
2023/03/25 02:33:50;;;;;;;0.70;0.70;;;;;;;24.55;36.97;99333.80;1834910;77;28147;-48
2023/03/25 02:37:03;;;;;;;1.00;1.00;;;;;;;24.55;36.99;99324.75;1868662;76;28181;-50
2023/03/25 02:40:10;;;;;;;0.93;0.93;;;;;;;24.59;36.92;99324.53;1844718;77;28180;-50
2023/03/25 02:43:05;;;;;;;0.42;0.42;;;;;;;24.55;36.96;99313.77;1842937;77;28232;-50
2023/03/25 02:45:56;;;;;;;0.60;0.60;;;;;;;24.52;36.98;99306.86;1869001;76;28189;-49
2023/03/25 02:48:57;;;;;;;0.77;0.77;;;;;;;24.57;37.00;99310.23;1868989;76;28107;-48
2023/03/25 02:51:48;;;;;;;0.60;0.60;;;;;;;24.61;36.94;99314.13;1851945;77;28107;-45
2023/03/25 02:54:40;;;;;;;0.75;0.75;;;;;;;24.60;36.90;99305.58;1868800;76;28411;-49
2023/03/25 02:57:33;;;;;;;0.80;0.80;;;;;;;24.59;36.89;99314.92;1868962;76;28173;-47
2023/03/25 03:00:26;;;;;;;0.70;0.70;;;;;;;24.62;36.88;99320.73;1836672;76;28177;-45
2023/03/25 03:03:14;;;;;;;0.50;0.50;;;;;;;24.63;36.88;99321.03;1824141;78;28266;-47
2023/03/25 03:06:04;;;;;;;0.57;0.57;;;;;;;24.64;36.85;99329.54;1860532;76;28060;-48
2023/03/25 03:09:08;;;;;;;0.60;0.60;;;;;;;24.63;36.90;99324.31;1868891;76;28114;-48
2023/03/25 03:12:11;;;;;;;0.75;0.75;;;;;;;24.63;36.88;99330.64;1856953;77;28166;-48
2023/03/25 03:15:05;;;;;;;1.00;0.75;;;;;;;24.64;36.83;99329.54;1850752;76;28173;-49
2023/03/25 03:18:15;;;;;;;0.60;0.60;;;;;;;24.63;36.87;99330.64;1860882;76;28222;-47
2023/03/25 03:21:09;;;;;;;0.90;0.60;;;;;;;24.64;36.82;99341.90;1857389;75;28710;-49
2023/03/25 03:24:20;;;;;;;0.70;0.70;;;;;;;24.61;36.88;99342.96;1858465;76;28126;-49
2023/03/25 03:27:24;;;;;;;0.72;0.60;;;;;;;24.62;36.87;99334.45;1846673;76;28165;-50
2023/03/25 03:30:17;;;;;;;0.70;0.70;;;;;;;24.64;36.85;99339.16;1868593;76;28146;-48
2023/03/25 03:33:14;;;;;;;0.57;0.57;;;;;;;24.66;36.83;99330.15;1851254;76;28118;-46
2023/03/25 03:36:09;;;;;;;0.60;0.60;;;;;;;24.67;36.80;99322.18;1868756;76;28169;-47
2023/03/25 03:39:08;;;;;;;0.72;0.72;;;;;;;24.68;36.84;99307.91;1868887;76;28104;-49
2023/03/25 03:41:59;;;;;;;0.63;0.63;;;;;;;24.69;36.84;99310.39;1866952;76;28056;-47
2023/03/25 03:44:53;;;;;;;0.60;0.60;;;;;;;24.70;36.82;99313.45;1853764;76;28068;-49
2023/03/25 03:47:46;;;;;;;0.70;0.70;;;;;;;24.68;36.77;99319.73;1872669;76;28099;-48
2023/03/25 03:50:40;;;;;;;0.63;0.63;;;;;;;24.71;36.79;99318.41;1868940;76;28155;-47
2023/03/25 03:53:37;;;;;;;0.78;0.70;;;;;;;24.73;36.78;99322.56;1868810;76;28104;-48
2023/03/25 03:56:31;;;;;;;0.60;0.60;;;;;;;24.72;36.79;99316.77;1868666;76;28107;-46
2023/03/25 03:59:33;;;;;;;3.20;0.60;;;;;;;24.71;36.76;99324.70;1868897;76;28173;-47
2023/03/25 04:02:39;;;;;;;1.40;0.62;;;;;;;24.70;36.82;99322.22;1868674;76;28052;-46
2023/03/25 04:05:31;;;;;;;0.80;0.80;;;;;;;24.71;36.82;99325.27;1849809;76;28132;-45
2023/03/25 04:08:25;;;;;;;0.80;0.80;;;;;;;24.71;36.85;99328.82;1846833;76;30127;-50
2023/03/25 04:11:16;;;;;;;0.80;0.80;;;;;;;24.72;36.82;99322.80;1868966;76;28060;-47
2023/03/25 04:14:06;;;;;;;0.68;0.68;;;;;;;24.74;36.83;99324.74;1868699;76;28104;-50
2023/03/25 04:16:55;;;;;;;0.50;0.50;;;;;;;24.75;36.79;99334.66;1852198;76;28064;-50
2023/03/25 04:19:47;;;;;;;0.60;0.60;;;;;;;24.76;36.76;99331.37;1868796;76;28107;-48
2023/03/25 04:22:36;;;;;;;0.50;0.50;;;;;;;24.74;36.77;99330.23;1873163;74;27926;-47
2023/03/25 04:25:28;;;;;;;0.65;0.65;;;;;;;24.80;36.78;99339.42;1868956;76;28080;-47
2023/03/25 04:28:17;;;;;;;0.60;0.60;;;;;;;24.78;36.75;99331.98;1847236;76;28264;-49
2023/03/25 04:31:15;;;;;;;0.60;0.60;;;;;;;24.82;36.75;99331.22;1849014;76;28088;-46
2023/03/25 04:34:03;;;;;;;0.57;0.57;;;;;;;24.83;36.74;99329.31;1840459;76;28280;-46
2023/03/25 04:36:52;;;;;;;0.60;0.60;;;;;;;24.79;36.70;99333.09;1857739;76;28174;-47
2023/03/25 04:39:41;;;;;;;0.70;0.70;;;;;;;24.81;36.77;99330.11;1868785;76;28072;-47
2023/03/25 04:42:31;;;;;;;0.40;0.40;;;;;;;24.80;36.74;99329.81;1846328;76;28107;-47
2023/03/25 04:45:20;;;;;;;0.60;0.60;;;;;;;24.82;36.74;99346.33;1868570;76;28126;-50
2023/03/25 04:48:13;;;;;;;0.57;0.57;;;;;;;24.82;36.74;99359.23;1868401;76;28095;-48
2023/03/25 04:51:02;;;;;;;0.53;0.53;;;;;;;24.84;36.75;99360.64;1836596;76;28254;-46
2023/03/25 04:53:50;;;;;;;0.50;0.50;;;;;;;24.87;36.71;99358.77;1810680;78;28388;-48
2023/03/25 04:56:39;;;;;;;0.70;0.70;;;;;;;24.86;36.66;99358.47;1857240;76;28111;-47
2023/03/25 04:59:27;;;;;;;1.40;0.60;;;;;;;24.90;36.65;99371.18;1868701;76;28127;-48
2023/03/25 05:02:17;;;;;;;0.57;0.57;;;;;;;24.86;36.60;99376.33;1868763;76;28208;-48
2023/03/25 05:05:06;;;;;;;0.80;0.60;;;;;;;24.89;36.57;99388.73;1868743;76;28068;-48
2023/03/25 05:07:57;;;;;;;0.50;0.50;;;;;;;24.91;36.55;99386.56;1868926;76;28056;-49
2023/03/25 05:10:45;;;;;;;0.73;0.73;;;;;;;24.91;36.57;99388.78;1868954;76;28067;-45
2023/03/25 05:13:34;;;;;;;0.78;0.78;;;;;;;24.87;36.50;99379.38;1868721;76;28126;-48
2023/03/25 05:16:22;;;;;;;1.10;1.00;;;;;;;24.93;36.57;99392.10;1868986;76;28095;-50
2023/03/25 05:19:11;;;;;;;0.60;0.60;;;;;;;24.93;36.54;99400.88;1868794;76;28131;-48
2023/03/25 05:22:01;;;;;;;0.80;0.80;;;;;;;24.94;36.57;99397.06;1872472;76;28145;-49
2023/03/25 05:24:52;;;;;;;0.50;0.50;;;;;;;24.96;36.67;99394.89;1859001;76;28087;-47
2023/03/25 05:27:40;;;;;;;1.30;0.70;;;;;;;24.96;36.66;99392.98;1878242;76;28151;-49
2023/03/25 05:30:31;;;;;;;0.70;0.70;;;;;;;25.00;36.59;99390.55;1878401;76;28191;-50
2023/03/25 05:33:18;;;;;;;0.80;0.80;;;;;;;24.99;36.56;99397.14;1878199;76;28067;-49
2023/03/25 05:36:08;;;;;;;0.60;0.60;;;;;;;24.99;36.60;99403.48;1858093;76;28107;-47
2023/03/25 05:38:57;;;;;;;0.70;0.70;;;;;;;25.03;36.57;99405.16;1878136;76;28064;-48
2023/03/25 05:41:45;;;;;;;0.68;0.68;;;;;;;25.03;36.48;99401.88;1878330;76;28119;-48
2023/03/25 05:44:33;;;;;;;0.70;0.70;;;;;;;25.01;36.49;99393.59;1878284;76;28084;-48
2023/03/25 05:47:23;;;;;;;1.33;0.60;;;;;;;25.02;36.47;99398.83;1857584;76;28174;-47
2023/03/25 05:50:13;;;;;;;0.88;0.68;;;;;;;25.02;36.48;99401.58;1855960;76;28172;-51
2023/03/25 05:53:01;;;;;;;0.50;0.50;;;;;;;25.00;36.49;99405.13;1878134;76;28425;-50
2023/03/25 05:55:50;;;;;;;0.80;0.80;;;;;;;25.03;36.53;99409.28;1861569;76;28208;-48
2023/03/25 05:58:39;;;;;;;0.80;0.80;;;;;;;25.03;36.45;99407.37;1880417;76;28103;-46
2023/03/25 06:01:27;;;;;;;0.85;0.70;;;;;;;25.04;36.53;99415.08;1877352;76;28044;-49
2023/03/25 06:04:15;;;;;;;0.83;0.83;;;;;;;25.06;36.41;99413.75;1871748;76;28231;-47
2023/03/25 06:07:12;;;;;;;0.70;0.70;;;;;;;25.07;36.42;99423.64;1880110;76;29025;-49
2023/03/25 06:09:56;;;;;;;0.62;0.62;;;;;;;25.08;36.45;99416.23;1878177;76;28143;-50
2023/03/25 06:12:46;;;;;;;0.72;0.72;;;;;;;25.08;36.39;99414.86;1878426;76;32067;-48
2023/03/25 06:15:38;;;;;;;0.55;0.55;;;;;;;25.10;36.36;99420.40;1878078;76;28067;-48
2023/03/25 06:18:24;;;;;;;0.50;0.50;;;;;;;25.08;36.37;99417.07;1859585;76;28180;-50
2023/03/25 06:21:13;;;;;;;0.70;0.70;;;;;;;25.09;36.39;99424.75;1878274;76;28151;-48
2023/03/25 06:24:01;;;;;;;0.70;0.70;;;;;;;25.11;36.31;99430.28;1861551;76;28200;-48
2023/03/25 06:26:50;;;;;;;0.80;0.70;;;;;;;25.12;36.30;99427.00;1856958;77;28057;-48
2023/03/25 06:29:42;;;;;;;0.62;0.62;;;;;;;25.09;36.31;99427.50;1837261;77;28178;-47
2023/03/25 06:32:30;;;;;;;0.60;0.60;;;;;;;25.14;36.27;99432.54;1868871;76;28071;-49
2023/03/25 06:35:20;;;;;;;0.60;0.60;;;;;;;25.12;36.25;99433.34;1868902;76;28181;-50
2023/03/25 06:38:09;;;;;;;0.70;0.70;;;;;;;25.13;36.28;99440.52;1868314;76;28091;-55
2023/03/25 06:40:59;;;;;;;0.70;0.70;;;;;;;25.16;36.22;99441.36;1846570;76;28254;-54
2023/03/25 06:43:49;;;;;;;0.60;0.60;;;;;;;25.19;35.79;99446.36;1850636;76;28120;-56
2023/03/25 06:46:45;;;;;;;0.80;0.80;;;;;;;25.25;35.53;99443.16;1856532;77;28340;-57
2023/03/25 06:49:38;;;;;;;0.82;0.82;;;;;;;25.07;34.01;99447.54;1859516;75;28308;-59
2023/03/25 06:52:26;;;;;;;1.10;0.60;;;;;;;25.05;33.36;99455.21;1837275;77;28135;-57
2023/03/25 06:55:16;;;;;;;0.75;0.75;;;;;;;25.09;33.47;99452.23;1835521;77;28182;-56
2023/03/25 06:58:05;;;;;;;1.00;0.50;;;;;;;25.09;33.95;99442.08;1856248;77;28165;-58
2023/03/25 07:00:56;;;;;;;0.72;0.62;;;;;;;25.12;34.13;99439.38;1852551;76;28162;-58
2023/03/25 07:03:44;;;;;;;0.40;0.40;;;;;;;25.13;34.10;99433.64;1854100;76;32141;-58
2023/03/25 07:06:33;;;;;;;0.75;0.75;;;;;;;25.13;34.28;99441.05;1869929;75;28112;-58
2023/03/25 07:09:21;;;;;;;0.55;0.55;;;;;;;25.13;34.44;99430.06;1868601;76;28108;-57
2023/03/25 07:12:10;;;;;;;0.55;0.55;;;;;;;25.14;34.58;99423.45;1856715;77;28185;-56
2023/03/25 07:14:58;;;;;;;0.63;0.63;;;;;;;25.13;34.56;99414.94;1847406;77;28267;-57
2023/03/25 07:17:48;;;;;;;0.60;0.60;;;;;;;25.14;34.60;99406.97;1846558;77;28154;-57
2023/03/25 07:20:37;;;;;;;0.63;0.63;;;;;;;25.16;34.94;99408.91;1867780;76;27996;-58
2023/03/25 07:23:26;;;;;;;0.68;0.68;;;;;;;25.18;34.94;99417.77;1875796;75;28087;-58
2023/03/25 07:26:15;;;;;;;0.88;0.60;;;;;;;25.17;34.91;99427.08;1789225;78;28300;-58
2023/03/25 07:29:03;;;;;;;3.10;0.57;;;;;;;25.17;34.93;99425.70;1862707;76;28120;-57
2023/03/25 07:31:52;;;;;;;0.78;0.78;;;;;;;25.19;35.06;99426.28;1849732;76;28153;-58
2023/03/25 07:34:40;;;;;;;0.50;0.50;;;;;;;25.19;35.26;99427.13;1837117;76;28126;-51
2023/03/25 07:37:28;;;;;;;1.20;0.60;;;;;;;25.20;35.67;99430.71;1850185;76;28102;-50
2023/03/25 07:40:17;;;;;;;0.60;0.60;;;;;;;25.23;35.29;99430.19;1848524;76;28251;-51
2023/03/25 07:43:06;;;;;;;1.00;0.72;;;;;;;25.19;34.80;99428.50;1857848;76;28180;-51
2023/03/25 07:45:56;;;;;;;1.47;0.50;;;;;;;25.20;34.25;99434.30;1814165;76;28767;-52
2023/03/25 07:48:45;;;;;;;0.50;0.50;;;;;;;25.22;34.60;99436.78;1813287;76;28306;-54
2023/03/25 07:51:33;;;;;;;0.75;0.70;;;;;;;25.23;35.06;99442.02;1835756;76;28302;-53
2023/03/25 07:54:23;;;;;;;0.53;0.53;;;;;;;25.24;35.39;99443.70;1853543;76;28072;-54
2023/03/25 07:57:12;;;;;;;0.42;0.42;;;;;;;25.25;35.36;99443.16;1820815;76;28229;-53
2023/03/25 08:00:00;;;;;;;1.10;0.50;;;;;;;25.23;35.68;99442.55;1867531;70;28112;-72
2023/03/25 08:02:48;;;;;;;2.65;0.70;;;;;;;25.28;35.76;99437.13;1814633;77;28298;-73
2023/03/25 08:05:37;;;;;;;0.80;0.60;;;;;;;25.33;35.81;99446.30;1876133;75;28225;-71
2023/03/25 08:08:28;;;;;;;0.50;0.50;;;;;;;25.32;35.88;99445.19;1868974;74;28123;-72
2023/03/25 08:11:16;;;;;;;0.47;0.47;;;;;;;25.32;35.97;99459.74;1872535;74;28079;-64
2023/03/25 08:14:04;;;;;;;0.50;0.50;;;;;;;25.38;36.10;99455.16;1813725;78;28231;-63
2023/03/25 08:16:52;;;;;;;0.50;0.50;;;;;;;25.35;36.11;99455.12;1875690;74;28696;-61
2023/03/25 08:19:41;;;;;;;0.65;0.47;;;;;;;25.38;36.15;99457.91;1871541;74;29072;-63
2023/03/25 08:22:29;;;;;;;0.57;0.45;;;;;;;25.39;36.31;99452.14;1865852;76;28781;-59
2023/03/25 08:25:18;;;;;;;1.07;0.65;;;;;;;25.45;36.36;99453.63;1795596;78;28235;-60
2023/03/25 08:28:07;;;;;;;1.50;0.80;;;;;;;25.46;36.29;99455.30;1778731;78;28304;-63
2023/03/25 08:30:56;;;;;;;0.50;0.50;;;;;;;25.45;36.33;99459.97;1783039;78;28234;-64
2023/03/25 08:33:45;;;;;;;1.07;0.50;;;;;;;25.47;36.36;99464.66;1786874;80;28278;-62
2023/03/25 08:36:38;;;;;;;0.40;0.40;;;;;;;25.47;36.43;99468.79;1781846;80;28422;-65
2023/03/25 08:39:28;;;;;;;0.57;0.57;;;;;;;25.47;36.68;99470.16;1794359;78;28338;-60
2023/03/25 08:42:14;;;;;;;0.40;0.40;;;;;;;25.45;36.74;99477.84;1790380;78;27978;-60
2023/03/25 08:45:03;;;;;;;0.42;0.42;;;;;;;25.46;36.79;99481.43;1821148;76;28185;-62
2023/03/25 08:47:52;;;;;;;0.85;0.75;;;;;;;25.48;36.83;99480.63;1864802;76;28240;-59
2023/03/25 08:50:40;;;;;;;1.60;0.73;;;;;;;25.50;36.81;99475.17;1844284;77;28190;-58
2023/03/25 08:53:29;;;;;;;0.70;0.70;;;;;;;25.46;37.08;99471.27;1860641;76;28151;-58
2023/03/25 08:56:17;;;;;;;0.30;0.30;;;;;;;25.52;37.08;99481.23;1820073;78;28170;-56
2023/03/25 08:59:06;;;;;;;0.90;0.60;;;;;;;25.51;37.14;99485.06;1877239;74;28190;-58
2023/03/25 09:01:55;;;;;;;0.57;0.57;;;;;;;25.52;37.09;99479.02;1859516;74;28133;-55
2023/03/25 09:04:43;;;;;;;0.65;0.65;;;;;;;25.53;37.14;99484.83;1788054;79;28351;-55
2023/03/25 09:07:32;;;;;;;2.17;0.60;;;;;;;25.56;37.23;99487.89;1769855;79;28362;-55
2023/03/25 09:10:22;;;;;;;0.50;0.50;;;;;;;25.55;37.17;99482.12;1797463;79;28337;-54
2023/03/25 09:13:10;;;;;;;0.50;0.50;;;;;;;25.54;37.18;99470.81;1760794;80;28675;-56
2023/03/25 09:15:59;;;;;;;0.80;0.60;;;;;;;25.55;37.16;99473.03;1806377;78;28284;-61
2023/03/25 09:18:47;;;;;;;1.35;0.70;;;;;;;25.55;37.22;99486.78;1781386;79;28228;-56
2023/03/25 09:21:36;;;;;;;0.93;0.70;;;;;;;25.58;37.23;99484.91;1843067;77;28242;-57
2023/03/25 09:24:24;;;;;;;0.50;0.50;;;;;;;25.59;37.24;99468.13;1789568;78;28276;-54
2023/03/25 09:27:13;;;;;;;0.70;0.53;;;;;;;25.58;37.20;99468.40;1843587;76;28083;-55
2023/03/25 09:30:02;;;;;;;0.60;0.60;;;;;;;25.59;37.22;99459.04;1769734;80;28341;-54
2023/03/25 09:32:50;;;;;;;0.82;0.80;;;;;;;25.60;37.18;99451.09;1799038;79;28406;-53
2023/03/25 09:35:41;;;;;;;1.17;0.70;;;;;;;25.58;37.15;99449.95;1801014;77;28237;-54
2023/03/25 09:38:30;;;;;;;0.70;0.70;;;;;;;25.60;37.17;99460.72;1799898;78;28300;-54
2023/03/25 09:41:41;;;;;;;0.68;0.68;;;;;;;25.59;37.11;99459.04;1843453;77;28069;-56
2023/03/25 09:44:39;;;;;;;0.60;0.60;;;;;;;25.59;37.07;99461.80;1769576;80;28389;-53
2023/03/25 09:47:32;;;;;;;0.63;0.63;;;;;;;25.56;37.20;99465.05;1780547;79;28295;-55
2023/03/25 09:50:20;;;;;;;0.50;0.50;;;;;;;25.59;37.12;99464.55;1782604;79;28319;-57
2023/03/25 09:53:15;;;;;;;2.67;0.80;;;;;;;25.57;37.13;99459.31;1786782;79;28398;-53
2023/03/25 09:56:06;;;;;;;0.72;0.72;;;;;;;25.58;37.09;99455.45;1761764;80;28325;-53
2023/03/25 09:59:00;;;;;;;0.80;0.80;;;;;;;25.56;37.12;99444.41;1812652;77;28557;-56
2023/03/25 10:01:54;;;;;;;0.80;0.80;;;;;;;25.57;37.02;99442.80;1792013;78;28346;-55
2023/03/25 10:04:48;;;;;;;0.72;0.72;;;;;;;25.58;37.05;99441.70;1798316;79;28214;-54
2023/03/25 10:07:45;;;;;;;0.70;0.70;;;;;;;25.58;37.02;99440.32;1770340;79;28393;-54
2023/03/25 10:10:50;;;;;;;1.70;0.80;;;;;;;25.58;37.04;99441.70;1754770;80;28396;-57
2023/03/25 10:13:47;;;;;;;0.75;0.75;;;;;;;25.58;37.03;99436.20;1837877;77;28185;-55
2023/03/25 10:16:47;;;;;;;0.68;0.68;;;;;;;25.59;37.00;99437.03;1769143;80;28365;-56
2023/03/25 10:19:53;;;;;;;0.70;0.70;;;;;;;25.60;36.99;99438.14;1797035;79;28292;-57
2023/03/25 10:22:49;;;;;;;0.88;0.88;;;;;;;25.59;36.93;99432.38;1791667;79;28254;-53
2023/03/25 10:25:41;;;;;;;0.78;0.78;;;;;;;25.58;36.99;99427.14;1794549;79;28264;-56
2023/03/25 10:28:32;;;;;;;0.98;0.93;;;;;;;25.59;36.96;99427.41;1795083;79;28238;-56
2023/03/25 10:31:24;;;;;;;0.80;0.80;;;;;;;25.60;36.96;99434.02;1790734;79;28369;-57
2023/03/25 10:34:18;;;;;;;1.40;0.78;;;;;;;25.62;36.93;99431.03;1797957;78;28325;-58
2023/03/25 10:37:11;;;;;;;0.78;0.78;;;;;;;25.62;36.94;99444.25;1827268;77;28185;-56
2023/03/25 10:40:21;;;;;;;1.05;0.90;;;;;;;25.63;36.90;99447.27;1768809;80;28405;-53
2023/03/25 10:43:24;;;;;;;0.90;0.90;;;;;;;25.63;36.92;99446.44;1792073;79;28262;-55
2023/03/25 10:46:21;;;;;;;0.90;0.90;;;;;;;25.63;36.92;99439.02;1840247;77;28225;-57
2023/03/25 10:49:13;;;;;;;1.07;1.00;;;;;;;25.61;36.89;99435.69;1775992;79;28332;-56
2023/03/25 10:52:02;;;;;;;1.00;0.90;;;;;;;25.64;36.88;99432.44;1779352;79;37618;-53
2023/03/25 10:54:56;;;;;;;0.60;0.60;;;;;;;25.64;36.88;99429.69;1783309;78;28292;-54
2023/03/25 10:57:45;;;;;;;1.60;0.70;;;;;;;25.65;36.86;99425.03;1834545;77;28195;-58
2023/03/25 11:00:33;;;;;;;1.13;0.80;;;;;;;25.66;36.79;99431.64;1782459;78;28411;-57
2023/03/25 11:03:34;;;;;;;2.42;0.85;;;;;;;25.68;36.79;99429.45;1845943;76;28409;-56
2023/03/25 11:06:25;;;;;;;1.02;0.93;;;;;;;25.69;36.79;99423.42;1828503;77;28255;-56
2023/03/25 11:09:27;;;;;;;0.93;0.90;;;;;;;25.67;36.79;99407.72;1821653;77;28211;-56
2023/03/25 11:12:21;;;;;;;0.88;0.88;;;;;;;25.68;36.76;99410.20;1832654;77;28760;-58
2023/03/25 11:15:13;;;;;;;0.90;0.90;;;;;;;25.63;36.75;99405.17;1794323;78;28322;-56
2023/03/25 11:18:24;;;;;;;0.93;0.90;;;;;;;25.67;36.78;99414.02;1808648;77;27889;-55
2023/03/25 11:21:14;;;;;;;0.97;0.97;;;;;;;25.69;36.72;99413.25;1833019;77;28310;-57
2023/03/25 11:24:06;;;;;;;0.80;0.80;;;;;;;25.66;36.74;99397.78;1828134;77;28248;-57
2023/03/25 11:26:54;;;;;;;1.32;1.22;;;;;;;25.69;36.70;99393.16;1798121;77;28209;-53
2023/03/25 11:29:45;;;;;;;1.30;1.10;;;;;;;25.70;36.58;99392.89;1835176;77;28121;-56
2023/03/25 11:32:37;;;;;;;1.15;1.05;;;;;;;25.70;36.19;99392.05;1842131;77;28192;-56
2023/03/25 11:35:28;;;;;;;2.42;1.10;;;;;;;25.67;36.48;99392.58;1827868;77;28229;-59
2023/03/25 11:38:22;;;;;;;1.00;1.00;;;;;;;25.69;36.54;99381.61;1837684;76;28126;-57
2023/03/25 11:41:13;;;;;;;1.15;1.10;;;;;;;25.71;36.49;99382.18;1843193;76;28142;-54
2023/03/25 11:44:04;;;;;;;0.90;0.90;;;;;;;25.71;36.49;99369.80;1841089;77;28169;-58
2023/03/25 11:46:55;;;;;;;2.10;1.02;;;;;;;25.74;36.44;99373.95;1841373;76;28070;-53
2023/03/25 11:49:51;;;;;;;0.85;0.85;;;;;;;25.72;36.47;99367.31;1843121;76;28144;-54
2023/03/25 11:52:48;;;;;;;1.22;1.12;;;;;;;25.73;36.50;99365.41;1831115;76;28144;-52
2023/03/25 11:55:48;;;;;;;1.02;1.02;;;;;;;25.73;36.47;99359.36;1842762;77;28087;-55
2023/03/25 11:58:40;;;;;;;1.00;1.00;;;;;;;25.75;36.43;99372.31;1836314;76;28229;-56
2023/03/25 12:01:31;;;;;;;1.20;1.10;;;;;;;25.73;36.48;99378.63;1832271;76;28151;-56
2023/03/25 12:04:24;;;;;;;0.87;0.87;;;;;;;25.70;36.70;99361.25;1844643;76;28154;-56
2023/03/25 12:07:15;;;;;;;1.00;1.00;;;;;;;25.70;36.70;99361.25;1828157;76;28056;-57
2023/03/25 12:10:05;;;;;;;1.00;1.00;;;;;;;25.75;36.53;99359.94;1822058;78;28138;-56
2023/03/25 12:13:00;;;;;;;0.78;0.78;;;;;;;25.76;36.49;99340.13;1808485;78;28315;-53
2023/03/25 12:15:57;;;;;;;1.87;1.02;;;;;;;25.77;36.43;99331.61;1826274;76;28132;-56
2023/03/25 12:18:58;;;;;;;2.12;1.15;;;;;;;25.77;36.46;99324.73;1842141;76;28156;-53
2023/03/25 12:22:09;;;;;;;1.00;1.00;;;;;;;25.76;36.53;99320.33;1827027;77;28182;-55
2023/03/25 12:25:25;;;;;;;0.90;0.90;;;;;;;25.76;36.50;99311.24;1818296;77;28258;-56
2023/03/25 12:28:27;;;;;;;1.20;1.10;;;;;;;25.74;36.53;99308.73;1829104;77;28120;-54
2023/03/25 12:31:27;;;;;;;0.90;0.90;;;;;;;25.73;36.55;99311.75;1793685;78;28144;-57
2023/03/25 12:34:37;;;;;;;1.00;1.00;;;;;;;25.73;36.56;99311.22;1826499;77;28212;-57
2023/03/25 12:37:28;;;;;;;0.80;0.80;;;;;;;25.74;36.55;99313.43;1826402;76;28178;-55
2023/03/25 12:40:39;;;;;;;1.00;0.90;;;;;;;25.73;36.59;99309.00;1814367;78;28107;-54
2023/03/25 12:43:36;;;;;;;0.80;0.80;;;;;;;25.72;36.62;99301.28;1831122;76;28144;-56
2023/03/25 12:46:55;;;;;;;1.07;1.02;;;;;;;25.73;36.61;99296.08;1825532;78;28071;-58
2023/03/25 12:49:50;;;;;;;0.90;0.90;;;;;;;25.75;36.57;99295.27;1828179;77;28166;-53
2023/03/25 12:53:03;;;;;;;1.00;1.00;;;;;;;25.73;36.62;99295.24;1821325;76;28157;-53
2023/03/25 12:56:13;;;;;;;1.83;0.90;;;;;;;25.74;36.63;99291.41;1824054;77;28314;-55
2023/03/25 12:59:27;;;;;;;0.90;0.90;;;;;;;25.73;36.65;99289.74;1819968;77;28149;-56
2023/03/25 13:02:31;;;;;;;0.90;0.90;;;;;;;25.74;36.63;99283.16;1821044;77;36040;-54
2023/03/25 13:05:45;;;;;;;1.07;0.90;;;;;;;25.74;36.61;99279.03;1826098;76;28109;-56
2023/03/25 13:08:39;;;;;;;1.10;1.00;;;;;;;25.73;36.64;99267.73;1833236;76;28156;-53
2023/03/25 13:11:39;;;;;;;1.70;1.12;;;;;;;25.73;36.66;99263.06;1852700;77;28111;-56
2023/03/25 13:14:37;;;;;;;0.98;0.93;;;;;;;25.74;36.62;99256.45;1849070;75;28110;-55
2023/03/25 13:17:28;;;;;;;1.00;1.00;;;;;;;25.76;36.61;99253.46;1856955;76;28149;-56
2023/03/25 13:20:18;;;;;;;0.90;0.90;;;;;;;25.75;36.60;99247.13;1849071;77;28097;-55
2023/03/25 13:23:09;;;;;;;1.15;0.90;;;;;;;25.78;36.53;99249.90;1838094;75;28109;-53
2023/03/25 13:26:05;;;;;;;1.20;1.10;;;;;;;25.81;36.52;99259.02;1818998;78;28276;-56
2023/03/25 13:29:02;;;;;;;1.17;1.07;;;;;;;25.80;36.52;99249.09;1778929;80;28462;-55
2023/03/25 13:31:52;;;;;;;1.10;1.00;;;;;;;25.81;36.51;99245.26;1827465;76;28328;-55
2023/03/25 13:34:44;;;;;;;1.55;1.27;;;;;;;25.82;36.48;99242.77;1786415;78;28336;-56